AirNav   Duncan Aviation - Near you to keep you flying
 
 924 users online  

CN19 Las Serpientes Airport
Knightsen, California, USA

GOING TO KNIGHTSEN?


FAA INFORMATION EFFECTIVE 01 DECEMBER 2022

Location

FAA Identifier: CN19
Lat/Long: 37-56-08.3500N 121-36-46.2300W
37-56.139167N 121-36.770500W
37.9356528,-121.6128417
(estimated)
Elevation: 10 ft. / 3 m (estimated)
From city: 2 miles SE of KNIGHTSEN, CA
Time zone: UTC -8 (UTC -7 during Daylight Saving Time)
Zip code: 94513

Airport Operations

Airport use: Private use. Permission required prior to landing
Activation date: 02/2004
Control tower: no
ARTCC: OAKLAND CENTER
FSS: OAKLAND FLIGHT SERVICE STATION
Attendance: UNATNDD
Segmented circle: no

Airport Communications

WX AWOS-3 at C83 (6 nm S): 123.775 (925-634-0906)
WX AWOS-AV at O88 (16 nm N): 127.075 (707-374-5396)
WX AWOS-3 at TCY (17 nm SE): 118.375 (209-831-4335)
WX ASOS at LVK (18 nm SW): PHONE 925-606-5412
WX ASOS at SCK (18 nm E): PHONE 209-982-4270

Nearby radio navigation aids

VOR radial/distance  VOR name  Freq  Var
CCRr091/21.5CONCORD VOR/DME117.0017E
LINr237/30.0LINDEN VOR/DME114.8017E
SACr168/30.6SACRAMENTO VORTAC115.2017E
OAKr050/31.6OAKLAND VOR/DME116.8017E
MODr284/36.1MODESTO VOR/DME114.6017E
SJCr009/37.2SAN JOSE VOR/DME114.1016E
SGDr095/38.8SCAGGS ISLAND VORTAC112.1017E

Airport Services

Runway Information

Runway 16/34

Dimensions: 1900 x 75 ft. / 579 x 23 m
Surface: turf
Runway edge lights: high intensity
RUNWAY 16  RUNWAY 34
Latitude: 37-56.295833N37-55.982500N
Longitude: 121-36.769500W121-36.771500W
Traffic pattern: leftleft
Displaced threshold: no200 ft.
DSPLCD THLD RY 34 MARKED WITH WHITE BOARDS.
Obstructions: none10 ft. berm, 50 ft. from runway

Airport Ownership and Management from official FAA records

Ownership: Privately-owned
Owner: BRUCE CLEGG
4401 ORWOOD ROAD
BRENTWOOD, CA 94513-5219
Phone 925-634-4064
Manager: BRUCE CLEGG
4401 ORWOOD ROAD
BRENTWOOD, CA 94513-5219
Phone 925-698-4831
CELL 925-698-4831

Airport Operational Statistics

Aircraft based on the field: 1
Single engine airplanes: 1
    

Additional Remarks

OWNER DESIRES ARPT NOT BE CHARTED.
FOR CD CTC NORCAL APCH AT 916-361-0516.

Instrument Procedures

There are no published instrument procedures at CN19.

Some nearby airports with instrument procedures:

C83 - Byron Airport (6 nm S)
O88 - Rio Vista Municipal Airport (16 nm N)
KTCY - Tracy Municipal Airport (17 nm SE)
KLVK - Livermore Municipal Airport (18 nm SW)
KSCK - Stockton Metro Airport (18 nm E)
 
Loc | Ops | Rwys | IFR | FBO | Links
Com | Nav | Svcs | Stats | Notes
Area around CN19 (Las Serpientes Airport)
 
Road maps at: MapQuest Bing Google
 
Aerial photo
WARNING: Photo may not be current or correct
Aerial photo of CN19 (Las Serpientes Airport)
Do you have a better or more recent aerial photo of Las Serpientes Airport that you would like to share? If so, please send us your photo.

 
Sectional chart

 
Airport distance calculator
Flying to Las Serpientes Airport? Find the distance to fly.

From to CN19

Sunrise and sunset
Times for 06-Dec-2022
 Local
(UTC-8)
 Zulu
(UTC)
Morning civil twilight06:4014:40
Sunrise07:0915:09
Sunset16:4600:46
Evening civil twilight17:1501:15

Current date and time
Zulu (UTC)  07-Dec-2022 04:58:55
Local (UTC-8)  06-Dec-2022 20:58:55
 
METAR
KC83 
6nm S 
070435Z AUTO 27007KT 10SM OVC030 07/06 A3011 RMK AO2
KTCY 
17nm SE 
070435Z AUTO 27006KT 10SM BKN024 BKN032 OVC040 08/07 A3010 RMK A01
KLVK 
17nm SW 
070453Z 00000KT 10SM OVC027 07/05 A3011 RMK AO2 SLP195 T00670050
KSCK 
19nm E 
070355Z 27004KT 10SM CLR 08/06 A3008 RMK AO2 SLP186 T00780061
TAF
KLVK 
17nm SW 
061740Z 0618/0718 VRB03KT P6SM BKN050 FM062000 06006KT P6SM SCT050 FM070100 VRB03KT P6SM SKC
KSCK 
19nm E 
061905Z 0619/0718 VRB05KT P6SM BKN050 BKN150 TEMPO 0619/0621 4SM -SHRA OVC050 FM062100 VRB05KT P6SM SCT250 FM071200 00000KT 4SM BR SKC TEMPO 0714/0717 1/4SM FG OVC004 FM071700 00000KT 6SM BR SKC
NOTAMs
Click for the latest NOTAMs
NOTAMs are issued by the DoD/FAA and will open in a separate window not controlled by AirNav.

 

 
 

Would you like to see your business listed on this page?

 If your business provides an interesting product or service to pilots, flight crews, aircraft, or users of the Las Serpientes Airport, you should consider listing it here.  To start the listing process, click on the button below
 
Add a business
 

Other Pages about Las Serpientes Airport

Update a link
 
Copyright © AirNav, LLC. All rights reserved. Privacy Policy  Contact